Flight Track Log - Related Links

Times and Time Zones

All times are in EDT time to prevent confusion due to time zone crossing. See the SWA1046 flight status page for this flight to view local times or setup timezone preferences in your user account.

Time Position Orientation Groundspeed Altitude Reporting Facility
EDT Latitude Longitude Course Direction KTS MPH feet Rate Location/Type
Wed 09:04:11 PM 41.7333 -87.8167 160° South 221 254 3,000  Level Chicago TRACON
Wed 09:05:53 PM 41.6361 -87.8564 197° South 241 277 6,500 2,598 Climbing Chicago Center
Wed 09:06:55 PM 41.5631 -87.8631 184° South 257 296 10,100 2,806 Climbing Chicago Center
Wed 09:07:57 PM 41.4825 -87.8711 184° South 281 323 12,300 2,565 Climbing Chicago Center
Wed 09:08:59 PM 41.3856 -87.8814 185° South 336 387 15,400 2,613 Climbing Chicago Center
Wed 09:09:00 PM 40.8557 -87.3103 160° South  Level Estimated
Wed 09:10:01 PM 41.2847 -87.8900 184° South 356 410 17,700  Level Chicago Center
Wed 09:11:02 PM 41.1758 -87.8903 180° South 386 444 20,200 2,537 Climbing Chicago Center
Wed 09:12:04 PM 41.0411 -87.8872 179° South 402 463 22,900 2,371 Climbing Chicago Center
Wed 09:13:06 PM 40.9239 -87.8817 178° South 415 478 25,100 2,081 Climbing Chicago Center
Wed 09:14:08 PM 40.8039 -87.8769 178° South 428 493 27,200 1,839 Climbing Chicago Center
Wed 09:15:10 PM 40.6833 -87.8747 179° South 434 499 28,900 1,610 Climbing Chicago Center
Wed 09:16:11 PM 40.5597 -87.8703 178° South 444 511 30,500 1,756 Climbing Chicago Center
Wed 09:17:13 PM 40.4375 -87.8486 172° South 447 514 32,500 1,839 Climbing Chicago Center
Wed 09:18:15 PM 40.2950 -87.8053 167° South 442 509 34,300 1,706 Climbing Chicago Center
Wed 09:19:02 PM 40.2014 -87.7800 168° South 441 507 35,600 1,500 Climbing Indianapolis Center
Wed 09:20:03 PM 40.0844 -87.7472 168° South 432 497 37,000 689 Climbing Indianapolis Center
Wed 09:21:04 PM 39.9694 -87.7050 164° South 429 494 37,000  Level Indianapolis Center
Wed 09:22:06 PM 39.8536 -87.6589 163° South 432 497 37,000  Level Indianapolis Center
Wed 09:23:07 PM 39.7406 -87.6133 163° South 426 490 37,000  Level Indianapolis Center
Wed 09:24:08 PM 39.6258 -87.5697 164° South 426 490 37,000  Level Indianapolis Center
Wed 09:25:10 PM 39.5117 -87.5250 163° South 426 490 37,000  Level Indianapolis Center
Wed 09:26:11 PM 39.3978 -87.4803 163° South 427 491 37,000  Level Indianapolis Center
Wed 09:27:12 PM 39.2656 -87.4286 163° South 425 489 37,000  Level Indianapolis Center
Wed 09:28:14 PM 39.1503 -87.3833 163° South 431 496 37,000  Level Indianapolis Center
Wed 09:29:15 PM 39.0528 -87.3461 163° South 429 494 37,000  Level Indianapolis Center
Wed 09:30:16 PM 38.9147 -87.2922 163° South 428 493 37,000  Level Indianapolis Center
Wed 09:31:18 PM 38.8000 -87.2489 164° South 429 494 37,000  Level Indianapolis Center
Wed 09:32:19 PM 38.6853 -87.2050 163° South 428 493 37,000  Level Indianapolis Center
Wed 09:33:20 PM 38.5717 -87.1606 163° South 426 490 37,000  Level Indianapolis Center
Wed 09:34:22 PM 38.4586 -87.1178 163° South 423 487 37,000  Level Indianapolis Center
Wed 09:35:23 PM 38.3492 -87.0778 164° South 425 489 37,000  Level Indianapolis Center
Wed 09:36:24 PM 38.2356 -87.0336 163° South 424 488 37,000 585 Level Indianapolis Center
Wed 09:37:26 PM 38.1050 -86.9836 163° South 425 489 38,200 976 Climbing Indianapolis Center
Wed 09:38:27 PM 37.9928 -86.9417 164° South 421 484 39,000 393 Climbing Indianapolis Center
Wed 09:39:28 PM 37.8800 -86.8994 164° South 421 484 39,000  Level Indianapolis Center
Wed 09:40:29 PM 37.7661 -86.8581 164° South 422 486 39,000  Level Indianapolis Center
Wed 09:41:31 PM 37.6525 -86.8169 164° South 423 487 39,000  Level Indianapolis Center
Wed 09:42:32 PM 37.5383 -86.7758 164° South 424 488 39,000  Level Indianapolis Center
Wed 09:43:33 PM 37.4286 -86.7339 163° South 423 487 39,000  Level Indianapolis Center
Wed 09:44:34 PM 37.3139 -86.6911 163° South 425 489 39,000  Level Indianapolis Center
Wed 09:45:21 PM 37.2203 -86.6556 163° South 426 490 39,000  Level Memphis Center
Wed 09:46:21 PM 37.1044 -86.6142 164° South 426 490 39,000  Level Memphis Center
Wed 09:47:21 PM 36.9822 -86.5681 163° South 426 490 39,000  Level Memphis Center
Wed 09:48:21 PM 36.8706 -86.5267 163° South 426 490 39,000  Level Memphis Center
Wed 09:49:21 PM 36.7567 -86.4853 164° South 426 490 39,000  Level Memphis Center
Wed 09:50:21 PM 36.6450 -86.4467 164° South 426 490 39,000  Level Memphis Center
Wed 09:51:21 PM 36.5333 -86.4031 163° South 426 490 39,000  Level Memphis Center
Wed 09:52:21 PM 36.4214 -86.3622 164° South 426 490 39,000  Level Memphis Center
Wed 09:53:21 PM 36.3203 -86.3258 164° South 426 490 39,000  Level Memphis Center
Wed 09:55:28 PM 36.0742 -86.2403 164° South 422 486 39,000  Level Atlanta Center
Wed 09:56:28 PM 35.9622 -86.2014 164° South 416 479 39,000  Level Atlanta Center
Wed 09:57:28 PM 35.8461 -86.1625 165° South 416 479 39,000  Level Atlanta Center
Wed 09:58:28 PM 35.7361 -86.1239 164° South 416 479 39,000  Level Atlanta Center
Wed 09:59:28 PM 35.6325 -86.0881 164° South 416 479 39,000  Level Atlanta Center
Wed 10:00:28 PM 35.5203 -86.0494 164° South 416 479 39,000  Level Atlanta Center
Wed 10:01:28 PM 35.4064 -86.0083 164° South 416 479 39,000  Level Atlanta Center
Wed 10:02:28 PM 35.2942 -85.9700 164° South 416 479 39,000  Level Atlanta Center
Wed 10:03:28 PM 35.1697 -85.9242 163° South 416 479 39,000  Level Atlanta Center
Wed 10:04:28 PM 35.0742 -85.8914 164° South 411 473 39,000  Level Atlanta Center
Wed 10:05:28 PM 34.9622 -85.8533 164° South 411 473 39,000  Level Atlanta Center
Wed 10:06:28 PM 34.8481 -85.8131 164° South 411 473 39,000  Level Atlanta Center
Wed 10:07:28 PM 34.7336 -85.7753 165° South 416 479 39,000  Level Atlanta Center
Wed 10:08:28 PM 34.6194 -85.7350 164° South 421 484 39,000  Level Atlanta Center
Wed 10:09:28 PM 34.5072 -85.7000 166° South 426 490 39,000  Level Atlanta Center
Wed 10:10:28 PM 34.3847 -85.6572 164° South 421 484 39,000  Level Atlanta Center
Wed 10:11:28 PM 34.2706 -85.6172 164° South 421 484 39,000  Level Atlanta Center
Wed 10:12:28 PM 34.1706 -85.5853 165° South 411 473 39,000  Level Atlanta Center
Wed 10:13:28 PM 34.0647 -85.5483 164° South 411 473 39,000  Level Atlanta Center
Wed 10:14:28 PM 33.9544 -85.5114 164° South 411 473 39,000  Level Atlanta Center
Wed 10:15:28 PM 33.8444 -85.4744 164° South 411 473 39,000  Level Atlanta Center
Wed 10:16:28 PM 33.7361 -85.4378 164° South 411 473 39,000  Level Atlanta Center
Wed 10:17:28 PM 33.6281 -85.4011 164° South 411 473 39,000  Level Atlanta Center
Wed 10:18:28 PM 33.5178 -85.3644 165° South 411 473 39,000  Level Atlanta Center
Wed 10:19:28 PM 33.4097 -85.3303 165° South 409 471 39,000  Level Atlanta Center
Wed 10:20:28 PM 33.2975 -85.2914 164° South 409 471 39,000  Level Atlanta Center
Wed 10:21:28 PM 33.1831 -85.2550 165° South 414 476 39,000  Level Atlanta Center
Wed 10:22:28 PM 33.0644 -85.2161 165° South 414 476 39,000  Level Atlanta Center
Wed 10:23:28 PM 32.9519 -85.1725 162° South 409 471 39,000  Level Atlanta Center
Wed 10:24:28 PM 32.8397 -85.1389 166° South 414 476 39,000  Level Atlanta Center
Wed 10:25:28 PM 32.7231 -85.0906 161° South 424 488 39,000  Level Atlanta Center
Wed 10:26:28 PM 32.6108 -85.0547 165° South 423 487 39,000  Level Atlanta Center
Wed 10:27:28 PM 32.5025 -85.0167 163° South 423 487 39,000  Level Atlanta Center
Wed 10:28:28 PM 32.3881 -84.9786 164° South 418 481 39,000  Level Atlanta Center
Wed 10:29:28 PM 32.2756 -84.9403 164° South 418 481 39,000  Level Atlanta Center
Wed 10:30:28 PM 32.1797 -84.9150 167° South 404 465 39,000  Level Atlanta Center
Wed 10:31:28 PM 32.0672 -84.8769 164° South 404 465 39,000  Level Atlanta Center
Wed 10:32:28 PM 31.9589 -84.8417 165° South 404 465 39,000  Level Atlanta Center
Wed 10:34:16 PM 31.7600 -84.7717 163° South 412 474 39,000  Level Jacksonville Center
Wed 10:35:16 PM 31.6500 -84.7375 165° South 412 474 39,000  Level Jacksonville Center
Wed 10:36:16 PM 31.5397 -84.6989 163° South 412 474 39,000  Level Jacksonville Center
Wed 10:37:16 PM 31.4297 -84.6628 164° South 412 474 39,000  Level Jacksonville Center
Wed 10:38:16 PM 31.3194 -84.6242 163° South 412 474 39,000  Level Jacksonville Center
Wed 10:39:16 PM 31.2053 -84.5881 165° South 412 474 39,000  Level Jacksonville Center
Wed 10:40:16 PM 31.0908 -84.5519 165° South 417 480 39,000  Level Jacksonville Center
Wed 10:41:16 PM 30.9786 -84.5136 164° South 417 480 39,000  Level Jacksonville Center
Wed 10:42:16 PM 30.8664 -84.4778 165° South 417 480 39,000  Level Jacksonville Center
Wed 10:43:16 PM 30.7519 -84.4397 164° South 417 480 39,000  Level Jacksonville Center
Wed 10:44:16 PM 30.6397 -84.4042 165° South 417 480 39,000  Level Jacksonville Center
Wed 10:45:16 PM 30.5233 -84.3444 156° South 417 480 39,000  Level Jacksonville Center
Wed 10:46:16 PM 30.4175 -84.2850 154° Southeast 417 480 39,000  Level Jacksonville Center
Wed 10:47:16 PM 30.3139 -84.2256 154° Southeast 417 480 39,000  Level Jacksonville Center
Wed 10:48:16 PM 30.2081 -84.1664 154° Southeast 422 486 39,000  Level Jacksonville Center
Wed 10:49:16 PM 30.1000 -84.1097 156° South 417 480 39,000  Level Jacksonville Center
Wed 10:50:16 PM 29.9897 -84.0486 154° Southeast 427 491 39,000  Level Jacksonville Center
Wed 10:51:16 PM 29.8839 -83.9922 155° Southeast 427 491 39,000  Level Jacksonville Center
Wed 10:52:16 PM 29.7758 -83.9311 154° Southeast 427 491 39,000  Level Jacksonville Center
Wed 10:53:16 PM 29.6678 -83.8750 156° South 427 491 39,000  Level Jacksonville Center
Wed 10:54:16 PM 29.5681 -83.8167 153° Southeast 432 497 39,000  Level Jacksonville Center
Wed 10:55:16 PM 29.4578 -83.7583 155° Southeast 437 503 39,000  Level Jacksonville Center
Wed 10:56:16 PM 29.3494 -83.7003 155° Southeast 437 503 39,000  Level Jacksonville Center
Wed 10:57:16 PM 29.2414 -83.6397 154° Southeast 437 503 39,000  Level Jacksonville Center
Wed 10:58:16 PM 29.1311 -83.5819 155° Southeast 437 503 39,000  Level Jacksonville Center
Wed 10:59:16 PM 29.0208 -83.5219 155° Southeast 437 503 39,000  Level Jacksonville Center
Wed 11:00:16 PM 28.9125 -83.4642 155° Southeast 437 503 39,000  Level Jacksonville Center
Wed 11:01:16 PM 28.8000 -83.4044 155° Southeast 442 509 39,000  Level Jacksonville Center
Wed 11:02:16 PM 28.6897 -83.3469 155° Southeast 437 503 39,000 -1,082 Level Jacksonville Center
Wed 11:04:30 PM 28.4494 -83.2208 155° Southeast 434 499 35,500 -2,000 Descending Miami Center
Wed 11:05:28 PM 28.3375 -83.1603 155° Southeast 434 499 32,600 -2,746 Descending Miami Center
Wed 11:06:28 PM 28.2294 -83.1022 155° Southeast 434 499 30,100 -2,380 Descending Miami Center
Wed 11:07:29 PM 28.1194 -83.0422 154° Southeast 434 499 27,800 -1,525 Descending Miami Center
Wed 11:08:30 PM 28.0133 -82.9894 156° South 434 499 27,000 -397 Descending Miami Center
Wed 11:09:30 PM 27.9028 -82.9411 159° South 429 494 27,000  Level Miami Center
Wed 11:10:28 PM 27.7881 -82.8903 159° South 429 494 27,000  Level Miami Center
Wed 11:11:28 PM 27.6694 -82.8350 158° South 426 490 27,000  Level Miami Center
Wed 11:12:28 PM 27.5608 -82.7847 158° South 426 490 27,000 -843 Level Miami Center
Wed 11:13:29 PM 27.4503 -82.7369 159° South 426 490 25,300 -1,869 Descending Miami Center
Wed 11:14:30 PM 27.3539 -82.6947 159° South 421 484 23,200 -2,118 Descending Miami Center
Wed 11:15:28 PM 27.2517 -82.6406 155° Southeast 413 475 21,100 -2,339 Descending Miami Center
Wed 11:16:28 PM 27.1544 -82.5656 146° Southeast 397 457 18,600 -2,231 Descending Miami Center
Wed 11:17:29 PM 27.0653 -82.4961 145° Southeast 391 450 16,600 -2,050 Descending Miami Center
Wed 11:18:28 PM 26.9822 -82.4314 145° Southeast 380 437 14,500 -2,033 Descending Miami Center
Wed 11:19:30 PM 26.8992 -82.3669 145° Southeast 375 432 12,500 -1,736 Descending Miami Center
Wed 11:20:29 PM 26.8183 -82.3003 144° Southeast 370 426 11,000 -1,220 Descending Miami Center
Wed 11:21:28 PM 26.7475 -82.2411 143° Southeast 353 406 10,100 -1,100 Descending Miami Center
Wed 11:22:29 PM 26.6783 -82.1917 147° Southeast 320 368 8,800 -1,350 Descending Miami Center
Wed 11:23:28 PM 26.6133 -82.1375 143° Southeast 300 345 7,400 -1,587 Descending Miami Center
Wed 11:24:30 PM 26.5506 -82.0906 146° Southeast 290 334 5,600 -1,800 Descending Miami Center
Wed 11:25:28 PM 26.4856 -82.0392 145° Southeast 290 334 3,800 -1,424 Descending Miami Center
Wed 11:26:28 PM 26.4397 -81.9744 128° Southeast 266 306 2,800 -1,000 Descending Miami Center
Wed 11:28:00 PM 26.4836 -81.8163 50° Northeast  Level FlightAware Approximate
Wed 11:35:00 PM 26.5333 -81.7500 50° Northeast  Level FlightAware Approximate
Wed 11:36:00 PM 26.5362 -81.7552 50° Northeast  Level Estimated
Wed 11:37:00 PM 26.5333 -81.7500 50° Northeast  Level FlightAware Approximate
Wed 11:38:00 PM 26.5362 -81.7552 50° Northeast  Level Estimated
Wed 11:39:00 PM 26.5333 -81.7500 50° Northeast  Level FlightAware Approximate

Login

Don't have an account? Register now (free) for customized features, flight alerts, and more!